This is the latest recevied weather packets stored in our database for station/object IZ1UKX-13. If no packets are shown the sender has not sent any weather packets the latest 10 day(s).
| Time | Temp. | Humidity | Pressure | Rain* | Wind** | Luminosity | Snow |
|---|---|---|---|---|---|---|---|
| 1777701377 | 11.67° C | 65% | 1023.8 hPa | 0 mm | - | 0 W/m² | - |
| 1777701351 | 11.67° C | 64% | 1024.9 hPa | 0 mm | - | 0 W/m² | - |
| 1777701051 | 11.67° C | 68% | 1024.9 hPa | 0 mm | - | 0 W/m² | - |
| 1777700751 | 9.44° C | 75% | 1025.4 hPa | 0 mm | - | 0 W/m² | - |
| 1777700701 | 9.44° C | 76% | 1025.4 hPa | 0 mm | - | 0 W/m² | - |
| 1777700100 | 6.67° C | 82% | 1025.8 hPa | 0 mm | - | 0 W/m² | - |
| 1777699800 | 6.11° C | 83% | 1026.2 hPa | 0 mm | - | 0 W/m² | - |
| 1777699500 | 5.56° C | 83% | 1026.2 hPa | 0 mm | - | 0 W/m² | - |
| 1777699201 | 5.56° C | 83% | 1026.2 hPa | 0 mm | - | 0 W/m² | - |
| 1777698900 | 5.56° C | 84% | 1026.2 hPa | 0 mm | - | 0 W/m² | - |
| 1777698600 | 5.56° C | 84% | 1026.2 hPa | 0 mm | - | 0 W/m² | - |
| 1777698300 | 5.56° C | 84% | 1026.2 hPa | 0 mm | - | 0 W/m² | - |
| 1777698000 | 5.56° C | 84% | 1026.2 hPa | 0 mm | - | 0 W/m² | - |
| 1777697701 | 5° C | 84% | 1026.2 hPa | 0 mm | - | 0 W/m² | - |
| 1777697400 | 5° C | 85% | 1026.2 hPa | 0 mm | - | 0 W/m² | - |
| 1777697100 | 4.44° C | 84% | 1026.2 hPa | 0 mm | - | 0 W/m² | - |
| 1777696800 | 5° C | 84% | 1026.2 hPa | 0 mm | - | 0 W/m² | - |
| 1777696501 | 5° C | 84% | 1026.2 hPa | 0 mm | - | 0 W/m² | - |
| 1777696200 | 5° C | 84% | 1026.2 hPa | 0 mm | - | 0 W/m² | - |
| 1777695900 | 4.44° C | 85% | 1026.2 hPa | 0 mm | - | 0 W/m² | - |
| 1777695601 | 5° C | 85% | 1026.2 hPa | 0 mm | - | 0 W/m² | - |
| 1777695301 | 4.44° C | 84% | 1026.2 hPa | 0 mm | - | 0 W/m² | - |
| 1777695275 | 4.44° C | 84% | 1026.2 hPa | 0 mm | - | 0 W/m² | - |
| 1777694974 | 5° C | 84% | 1026.2 hPa | 0 mm | - | 0 W/m² | - |
| 1777694674 | 5° C | 84% | 1026.2 hPa | 0 mm | - | 0 W/m² | - |
* Rain latest hour (hover to see other rain measurements)
** Current wind speed in m/s (hover to see current wind gust speed)